createdAt,value
2023-03-28T00:00:08.242Z,18.90
2023-03-28T00:00:22.263Z,18.89
2023-03-28T00:00:36.295Z,18.90
2023-03-28T00:00:50.298Z,18.89
2023-03-28T00:01:18.518Z,18.88
2023-03-28T00:01:32.508Z,18.91
2023-03-28T00:01:46.489Z,18.90
2023-03-28T00:02:00.484Z,18.90
2023-03-28T00:02:28.451Z,18.89
2023-03-28T00:02:42.557Z,18.88
2023-03-28T00:02:56.622Z,18.90
2023-03-28T00:03:10.682Z,18.88
2023-03-28T00:03:38.718Z,18.90
2023-03-28T00:03:52.913Z,18.88
2023-03-28T00:04:07.051Z,18.88
2023-03-28T00:04:21.183Z,18.88
2023-03-28T00:04:49.175Z,18.89
2023-03-28T00:05:03.167Z,18.89
2023-03-28T00:05:17.251Z,18.88
2023-03-28T00:05:31.382Z,18.90
2023-03-28T00:05:59.662Z,18.89
2023-03-28T00:06:14.043Z,18.89
2023-03-28T00:06:28.303Z,18.89
2023-03-28T00:06:42.307Z,18.90
2023-03-28T00:07:10.326Z,18.89
2023-03-28T00:07:24.332Z,18.89
2023-03-28T00:07:38.321Z,18.88
2023-03-28T00:07:52.312Z,18.88
2023-03-28T00:08:20.270Z,18.87
2023-03-28T00:08:34.243Z,18.88
2023-03-28T00:08:48.347Z,18.89
2023-03-28T00:09:02.353Z,18.89
2023-03-28T00:09:30.325Z,18.88
2023-03-28T00:09:44.325Z,18.88
2023-03-28T00:09:58.327Z,18.88
2023-03-28T00:10:12.329Z,18.88
2023-03-28T00:10:40.300Z,18.87
2023-03-28T00:10:54.284Z,18.87
2023-03-28T00:11:08.275Z,18.89
2023-03-28T00:11:22.267Z,18.87
2023-03-28T00:11:36.255Z,18.88
2023-03-28T00:11:50.245Z,18.87
2023-03-28T00:12:04.238Z,18.87
2023-03-28T00:12:18.239Z,18.87
2023-03-28T00:12:32.336Z,18.87
2023-03-28T00:13:00.322Z,18.87
2023-03-28T00:13:14.441Z,18.87
2023-03-28T00:13:28.455Z,18.87
2023-03-28T00:13:42.438Z,18.87
2023-03-28T00:14:10.402Z,18.87
2023-03-28T00:14:24.397Z,18.87
2023-03-28T00:14:38.392Z,18.87
2023-03-28T00:14:52.384Z,18.87
2023-03-28T00:15:20.348Z,18.87
2023-03-28T00:15:34.339Z,18.86
2023-03-28T00:15:48.553Z,18.87
2023-03-28T00:16:02.876Z,18.87
2023-03-28T00:16:30.945Z,18.88
2023-03-28T00:16:44.958Z,18.88
2023-03-28T00:16:58.949Z,18.88
2023-03-28T00:17:12.940Z,18.87
2023-03-28T00:17:40.982Z,18.88
2023-03-28T00:17:55.053Z,18.87
2023-03-28T00:18:09.090Z,18.87
2023-03-28T00:18:23.083Z,18.88
2023-03-28T00:18:51.164Z,18.88
2023-03-28T00:19:05.219Z,18.87
2023-03-28T00:19:19.222Z,18.88
2023-03-28T00:19:33.227Z,18.87
2023-03-28T00:20:01.197Z,18.87
2023-03-28T00:20:15.188Z,18.86
2023-03-28T00:20:29.190Z,18.86
2023-03-28T00:20:43.200Z,18.87
2023-03-28T00:21:11.152Z,18.87
2023-03-28T00:21:25.137Z,18.86
2023-03-28T00:21:39.133Z,18.86
2023-03-28T00:21:53.124Z,18.87
2023-03-28T00:22:21.065Z,18.85
2023-03-28T00:22:35.046Z,18.87
2023-03-28T00:22:49.047Z,18.85
2023-03-28T00:23:03.053Z,18.86
2023-03-28T00:23:31.041Z,18.86
2023-03-28T00:23:45.019Z,18.87
2023-03-28T00:23:59.021Z,18.86
2023-03-28T00:24:13.013Z,18.85
2023-03-28T00:24:40.963Z,18.85
2023-03-28T00:24:54.952Z,18.85
2023-03-28T00:25:08.942Z,18.86
2023-03-28T00:25:22.945Z,18.85
2023-03-28T00:25:50.904Z,18.87
2023-03-28T00:26:04.885Z,18.86
2023-03-28T00:26:18.879Z,18.86
2023-03-28T00:26:32.877Z,18.85
2023-03-28T00:27:00.833Z,18.86
2023-03-28T00:27:14.829Z,18.86
2023-03-28T00:27:28.818Z,18.85
2023-03-28T00:27:42.825Z,18.86
2023-03-28T00:28:10.804Z,18.85
2023-03-28T00:28:24.792Z,18.85
2023-03-28T00:28:38.781Z,18.85
2023-03-28T00:28:52.766Z,18.85
2023-03-28T00:29:06.778Z,18.85
2023-03-28T00:29:21.079Z,18.85
2023-03-28T00:29:35.412Z,18.84
2023-03-28T00:29:49.394Z,18.83
2023-03-28T00:30:03.402Z,18.84
2023-03-28T00:30:31.375Z,18.85
2023-03-28T00:30:45.347Z,18.84
2023-03-28T00:30:59.383Z,18.83
2023-03-28T00:31:13.412Z,18.83
2023-03-28T00:31:41.387Z,18.82
2023-03-28T00:31:55.371Z,18.84
2023-03-28T00:32:09.350Z,18.84
2023-03-28T00:32:23.388Z,18.83
2023-03-28T00:32:51.406Z,18.82
2023-03-28T00:33:05.547Z,18.84
2023-03-28T00:33:19.618Z,18.84
2023-03-28T00:33:33.609Z,18.84
2023-03-28T00:34:01.605Z,18.83
2023-03-28T00:34:15.619Z,18.84
2023-03-28T00:34:29.611Z,18.83
2023-03-28T00:34:43.600Z,18.84
2023-03-28T00:35:11.573Z,18.84
2023-03-28T00:35:25.584Z,18.82
2023-03-28T00:35:39.675Z,18.83
2023-03-28T00:35:53.719Z,18.83
2023-03-28T00:36:21.729Z,18.82
2023-03-28T00:36:35.708Z,18.83
2023-03-28T00:36:49.699Z,18.83
2023-03-28T00:37:03.692Z,18.82
2023-03-28T00:37:31.667Z,18.82
2023-03-28T00:37:45.872Z,18.81
2023-03-28T00:37:59.852Z,18.82
2023-03-28T00:38:13.927Z,18.82
2023-03-28T00:38:41.911Z,18.81
2023-03-28T00:38:55.890Z,18.81
2023-03-28T00:39:09.871Z,18.81
2023-03-28T00:39:23.877Z,18.80
2023-03-28T00:39:51.823Z,18.80
2023-03-28T00:40:05.834Z,18.81
2023-03-28T00:40:19.812Z,18.80
2023-03-28T00:40:33.807Z,18.80
2023-03-28T00:41:01.766Z,18.80
2023-03-28T00:41:15.765Z,18.80
2023-03-28T00:41:29.750Z,18.81
2023-03-28T00:41:43.758Z,18.80
2023-03-28T00:42:11.743Z,18.80
2023-03-28T00:42:25.737Z,18.81
2023-03-28T00:42:39.716Z,18.79
2023-03-28T00:42:53.722Z,18.81
2023-03-28T00:43:21.712Z,18.79
2023-03-28T00:43:35.704Z,18.79
2023-03-28T00:43:49.696Z,18.80
2023-03-28T00:44:03.686Z,18.80
2023-03-28T00:44:31.652Z,18.81
2023-03-28T00:44:45.665Z,18.81
2023-03-28T00:44:59.684Z,18.79
2023-03-28T00:45:13.677Z,18.80
2023-03-28T00:45:41.622Z,18.79
2023-03-28T00:46:06.520Z,18.79
2023-03-28T00:46:09.636Z,18.80
2023-03-28T00:46:23.756Z,18.80
2023-03-28T00:46:51.803Z,18.79
2023-03-28T00:47:05.854Z,18.81
2023-03-28T00:47:19.878Z,18.80
2023-03-28T00:47:33.915Z,18.79
2023-03-28T00:48:01.985Z,18.81
2023-03-28T00:48:16.091Z,18.79
2023-03-28T00:48:30.096Z,18.78
2023-03-28T00:48:44.089Z,18.79
2023-03-28T00:49:12.046Z,18.78
2023-03-28T00:49:26.051Z,18.78
2023-03-28T00:49:40.214Z,18.79
2023-03-28T00:49:54.208Z,18.79
2023-03-28T00:50:22.219Z,18.79
2023-03-28T00:50:36.214Z,18.79
2023-03-28T00:50:50.217Z,18.79
2023-03-28T00:51:04.197Z,18.80
2023-03-28T00:51:32.226Z,18.80
2023-03-28T00:51:46.252Z,18.80
2023-03-28T00:52:00.234Z,18.80
2023-03-28T00:52:14.232Z,18.80
2023-03-28T00:52:42.189Z,18.80
2023-03-28T00:52:56.162Z,18.79
2023-03-28T00:53:10.152Z,18.79
2023-03-28T00:53:24.143Z,18.80
2023-03-28T00:53:52.112Z,18.80
2023-03-28T00:54:06.105Z,18.79
2023-03-28T00:54:20.135Z,18.79
2023-03-28T00:54:34.142Z,18.79
2023-03-28T00:55:02.119Z,18.80
2023-03-28T00:55:16.140Z,18.79
2023-03-28T00:55:30.147Z,18.79
2023-03-28T00:55:44.149Z,18.79
2023-03-28T00:56:12.122Z,18.79
2023-03-28T00:56:26.106Z,18.78
2023-03-28T00:56:40.114Z,18.78
2023-03-28T00:56:54.165Z,18.80
2023-03-28T00:57:22.144Z,18.78
2023-03-28T00:57:36.129Z,18.78
2023-03-28T00:57:50.146Z,18.79
2023-03-28T00:58:04.146Z,18.79
2023-03-28T00:58:32.173Z,18.79
2023-03-28T00:58:46.181Z,18.78
2023-03-28T00:59:00.159Z,18.77
2023-03-28T00:59:14.153Z,18.77
2023-03-28T00:59:28.153Z,18.78
2023-03-28T00:59:42.176Z,18.78
2023-03-28T00:59:56.171Z,18.78
2023-03-28T01:00:10.164Z,18.79
2023-03-28T01:00:24.198Z,18.78
2023-03-28T01:00:52.184Z,18.77
2023-03-28T01:01:06.219Z,18.78
2023-03-28T01:01:20.323Z,18.78
2023-03-28T01:01:34.399Z,18.77
2023-03-28T01:02:02.428Z,18.78
2023-03-28T01:02:16.534Z,18.79
2023-03-28T01:02:30.620Z,18.78
2023-03-28T01:02:44.765Z,18.78
2023-03-28T01:03:12.884Z,18.79
2023-03-28T01:03:27.122Z,18.78
2023-03-28T01:03:41.374Z,18.76
2023-03-28T01:03:55.508Z,18.77
2023-03-28T01:04:23.488Z,18.77
2023-03-28T01:04:37.474Z,18.77
2023-03-28T01:04:51.465Z,18.78
2023-03-28T01:05:05.458Z,18.77
2023-03-28T01:05:33.462Z,18.77
2023-03-28T01:05:47.446Z,18.77
2023-03-28T01:06:01.656Z,18.77
2023-03-28T01:06:15.786Z,18.77
2023-03-28T01:06:43.759Z,18.77
2023-03-28T01:06:57.766Z,18.76
2023-03-28T01:07:11.755Z,18.77
2023-03-28T01:07:25.744Z,18.75
2023-03-28T01:07:39.744Z,18.76
2023-03-28T01:07:53.728Z,18.77
2023-03-28T01:08:07.713Z,18.77
2023-03-28T01:08:21.725Z,18.75
2023-03-28T01:08:35.723Z,18.77
2023-03-28T01:09:03.669Z,18.76
2023-03-28T01:09:17.662Z,18.78
2023-03-28T01:09:31.652Z,18.78
2023-03-28T01:09:45.641Z,18.77
2023-03-28T01:10:13.612Z,18.77
2023-03-28T01:10:27.644Z,18.77
2023-03-28T01:10:41.630Z,18.77
2023-03-28T01:10:55.640Z,18.75
2023-03-28T01:11:23.598Z,18.75
2023-03-28T01:11:37.590Z,18.76
2023-03-28T01:11:51.610Z,18.75
2023-03-28T01:12:05.603Z,18.76
2023-03-28T01:12:33.614Z,18.76
2023-03-28T01:12:47.613Z,18.75
2023-03-28T01:13:01.621Z,18.75
2023-03-28T01:13:15.658Z,18.75
2023-03-28T01:13:43.621Z,18.76
2023-03-28T01:13:57.612Z,18.76
2023-03-28T01:14:11.652Z,18.75
2023-03-28T01:14:25.650Z,18.75
2023-03-28T01:14:53.634Z,18.76
2023-03-28T01:15:07.758Z,18.76
2023-03-28T01:15:21.780Z,18.76
2023-03-28T01:15:35.892Z,18.75
2023-03-28T01:16:04.135Z,18.75
2023-03-28T01:16:18.219Z,18.75
2023-03-28T01:16:32.364Z,18.75
2023-03-28T01:16:46.367Z,18.76
2023-03-28T01:17:14.317Z,18.75
2023-03-28T01:17:28.369Z,18.74
2023-03-28T01:17:42.401Z,18.74
2023-03-28T01:17:56.418Z,18.74
2023-03-28T01:18:24.402Z,18.75
2023-03-28T01:18:38.401Z,18.75
2023-03-28T01:18:52.405Z,18.74
2023-03-28T01:19:06.398Z,18.73
2023-03-28T01:19:34.848Z,18.75
2023-03-28T01:19:48.832Z,18.74
2023-03-28T01:20:02.822Z,18.75
2023-03-28T01:20:16.805Z,18.73
2023-03-28T01:20:44.827Z,18.74
2023-03-28T01:20:58.813Z,18.73
2023-03-28T01:21:12.821Z,18.74
2023-03-28T01:21:26.822Z,18.73
2023-03-28T01:21:54.779Z,18.74
2023-03-28T01:22:08.775Z,18.74
2023-03-28T01:22:22.766Z,18.74
2023-03-28T01:22:36.761Z,18.74
2023-03-28T01:23:04.710Z,18.73
2023-03-28T01:23:18.706Z,18.74
2023-03-28T01:23:32.700Z,18.74
2023-03-28T01:23:46.693Z,18.74
2023-03-28T01:24:14.654Z,18.75
2023-03-28T01:24:28.654Z,18.75
2023-03-28T01:24:42.651Z,18.73
2023-03-28T01:24:56.645Z,18.73
2023-03-28T01:25:24.629Z,18.72
2023-03-28T01:25:38.630Z,18.73
2023-03-28T01:25:52.629Z,18.74
2023-03-28T01:26:06.636Z,18.73
2023-03-28T01:26:34.624Z,18.73
2023-03-28T01:26:48.618Z,18.73
2023-03-28T01:27:02.633Z,18.72
2023-03-28T01:27:16.623Z,18.72
2023-03-28T01:27:44.578Z,18.71
2023-03-28T01:27:58.565Z,18.73
2023-03-28T01:28:12.544Z,18.72
2023-03-28T01:28:26.531Z,18.73
2023-03-28T01:28:54.499Z,18.73
2023-03-28T01:29:08.491Z,18.73
2023-03-28T01:29:22.490Z,18.72
2023-03-28T01:29:36.477Z,18.73
2023-03-28T01:30:04.423Z,18.72
2023-03-28T01:30:18.417Z,18.72
2023-03-28T01:30:32.474Z,18.72
2023-03-28T01:30:46.470Z,18.72
2023-03-28T01:31:14.482Z,18.71
2023-03-28T01:31:28.500Z,18.71
2023-03-28T01:31:42.524Z,18.72
2023-03-28T01:31:56.640Z,18.72
2023-03-28T01:32:24.694Z,18.72
2023-03-28T01:32:38.747Z,18.72
2023-03-28T01:32:52.874Z,18.71
2023-03-28T01:33:06.941Z,18.71
2023-03-28T01:33:34.950Z,18.72
2023-03-28T01:33:48.938Z,18.70
2023-03-28T01:34:02.979Z,18.71
2023-03-28T01:34:16.983Z,18.71
2023-03-28T01:34:44.925Z,18.71
2023-03-28T01:34:58.933Z,18.70
2023-03-28T01:35:12.930Z,18.71
2023-03-28T01:35:26.946Z,18.71
2023-03-28T01:35:54.979Z,18.70
2023-03-28T01:36:08.978Z,18.70
2023-03-28T01:36:34.095Z,18.70
2023-03-28T01:36:36.749Z,18.69
2023-03-28T01:37:04.709Z,18.70
2023-03-28T01:37:18.717Z,18.69
2023-03-28T01:37:32.717Z,18.69
2023-03-28T01:37:46.708Z,18.70
2023-03-28T01:38:00.712Z,18.69
2023-03-28T01:38:14.724Z,18.69
2023-03-28T01:38:28.742Z,18.69
2023-03-28T01:38:42.761Z,18.70
2023-03-28T01:38:56.747Z,18.69
2023-03-28T01:39:24.846Z,18.69
2023-03-28T01:39:38.852Z,18.69
2023-03-28T01:39:52.845Z,18.69
2023-03-28T01:40:06.860Z,18.69
2023-03-28T01:40:34.839Z,18.69
2023-03-28T01:40:48.830Z,18.70
2023-03-28T01:41:02.809Z,18.69
2023-03-28T01:41:16.800Z,18.69
2023-03-28T01:41:44.752Z,18.70
2023-03-28T01:41:58.746Z,18.68
2023-03-28T01:42:12.740Z,18.69
2023-03-28T01:42:26.762Z,18.69
2023-03-28T01:42:54.726Z,18.69
2023-03-28T01:43:08.718Z,18.68
2023-03-28T01:43:22.705Z,18.70
2023-03-28T01:43:36.716Z,18.69
2023-03-28T01:44:04.667Z,18.68
2023-03-28T01:44:18.665Z,18.68
2023-03-28T01:44:32.644Z,18.68
2023-03-28T01:44:46.646Z,18.68
2023-03-28T01:45:14.624Z,18.69
2023-03-28T01:45:28.718Z,18.67
2023-03-28T01:45:42.785Z,18.67
2023-03-28T01:45:56.910Z,18.68
2023-03-28T01:46:25.005Z,18.69
2023-03-28T01:46:39.041Z,18.67
2023-03-28T01:46:53.023Z,18.68
2023-03-28T01:47:07.021Z,18.67
2023-03-28T01:47:35.018Z,18.67
2023-03-28T01:47:49.043Z,18.68
2023-03-28T01:48:03.086Z,18.69
2023-03-28T01:48:17.124Z,18.68
2023-03-28T01:48:45.138Z,18.68
2023-03-28T01:48:59.132Z,18.67
2023-03-28T01:49:13.131Z,18.68
2023-03-28T01:49:27.138Z,18.67
2023-03-28T01:49:55.080Z,18.66
2023-03-28T01:50:09.097Z,18.67
2023-03-28T01:50:23.082Z,18.67
2023-03-28T01:50:37.082Z,18.66
2023-03-28T01:50:51.070Z,18.67
2023-03-28T01:51:05.095Z,18.68
2023-03-28T01:51:19.109Z,18.66
2023-03-28T01:51:33.101Z,18.66
2023-03-28T01:51:47.099Z,18.66
2023-03-28T01:52:15.054Z,18.66
2023-03-28T01:52:29.037Z,18.65
2023-03-28T01:52:43.030Z,18.66
2023-03-28T01:52:57.024Z,18.66
2023-03-28T01:53:24.985Z,18.65
2023-03-28T01:53:38.981Z,18.66
2023-03-28T01:53:52.976Z,18.66
2023-03-28T01:54:06.968Z,18.65
2023-03-28T01:54:34.913Z,18.66
2023-03-28T01:54:48.900Z,18.66
2023-03-28T01:55:02.901Z,18.67
2023-03-28T01:55:16.875Z,18.65
2023-03-28T01:55:44.849Z,18.66
2023-03-28T01:55:59.040Z,18.68
2023-03-28T01:56:13.233Z,18.67
2023-03-28T01:56:27.289Z,18.66
2023-03-28T01:56:55.376Z,18.65
2023-03-28T01:57:09.520Z,18.66
2023-03-28T01:57:23.662Z,18.67
2023-03-28T01:57:37.838Z,18.66
2023-03-28T01:58:05.841Z,18.67
2023-03-28T01:58:19.831Z,18.66
2023-03-28T01:58:33.830Z,18.66
2023-03-28T01:58:47.808Z,18.67
2023-03-28T01:59:15.763Z,18.66
2023-03-28T01:59:29.761Z,18.64
2023-03-28T01:59:43.744Z,18.66
2023-03-28T01:59:57.734Z,18.67
2023-03-28T02:00:25.697Z,18.66
2023-03-28T02:00:39.817Z,18.66
2023-03-28T02:00:53.855Z,18.65
2023-03-28T02:01:07.871Z,18.66
2023-03-28T02:01:35.965Z,18.65
2023-03-28T02:01:50.056Z,18.65
2023-03-28T02:02:04.133Z,18.65
2023-03-28T02:02:18.213Z,18.64
2023-03-28T02:02:46.285Z,18.65
2023-03-28T02:03:00.519Z,18.66
2023-03-28T02:03:14.725Z,18.65
2023-03-28T02:03:28.905Z,18.66
2023-03-28T02:03:42.975Z,18.66
2023-03-28T02:03:56.999Z,18.66
2023-03-28T02:04:20.377Z,18.66
2023-03-28T02:04:24.800Z,18.66
2023-03-28T02:04:38.805Z,18.67
2023-03-28T02:05:06.776Z,18.66
2023-03-28T02:05:20.772Z,18.67
2023-03-28T02:05:34.764Z,18.66
2023-03-28T02:05:48.763Z,18.66
2023-03-28T02:06:16.756Z,18.65
2023-03-28T02:06:30.744Z,18.65
2023-03-28T02:06:44.728Z,18.65
2023-03-28T02:06:58.724Z,18.65
2023-03-28T02:07:26.694Z,18.65
2023-03-28T02:07:40.684Z,18.64
2023-03-28T02:07:54.698Z,18.64
2023-03-28T02:08:08.714Z,18.65
2023-03-28T02:08:36.683Z,18.64
2023-03-28T02:08:50.679Z,18.64
2023-03-28T02:09:04.663Z,18.64
2023-03-28T02:09:18.652Z,18.64
2023-03-28T02:09:46.613Z,18.64
2023-03-28T02:10:00.614Z,18.64
2023-03-28T02:10:14.599Z,18.64
2023-03-28T02:10:28.606Z,18.64
2023-03-28T02:10:56.597Z,18.63
2023-03-28T02:11:10.574Z,18.64
2023-03-28T02:11:24.563Z,18.63
2023-03-28T02:11:38.550Z,18.63
2023-03-28T02:12:06.505Z,18.63
2023-03-28T02:12:20.501Z,18.64
2023-03-28T02:12:34.515Z,18.63
2023-03-28T02:12:48.513Z,18.63
2023-03-28T02:13:16.470Z,18.64
2023-03-28T02:13:30.463Z,18.63
2023-03-28T02:13:44.450Z,18.63
2023-03-28T02:13:58.447Z,18.63
2023-03-28T02:14:26.425Z,18.62
2023-03-28T02:14:40.454Z,18.61
2023-03-28T02:14:54.452Z,18.61
2023-03-28T02:15:08.458Z,18.62
2023-03-28T02:15:36.415Z,18.62
2023-03-28T02:15:50.409Z,18.63
2023-03-28T02:16:04.418Z,18.63
2023-03-28T02:16:18.550Z,18.62
2023-03-28T02:16:46.557Z,18.62
2023-03-28T02:17:00.639Z,18.60
2023-03-28T02:17:14.634Z,18.61
2023-03-28T02:17:28.657Z,18.62
2023-03-28T02:17:56.719Z,18.62
2023-03-28T02:18:10.756Z,18.62
2023-03-28T02:18:24.745Z,18.60
2023-03-28T02:18:38.747Z,18.61
2023-03-28T02:19:06.696Z,18.61
2023-03-28T02:19:20.686Z,18.60
2023-03-28T02:19:34.683Z,18.61
2023-03-28T02:19:48.695Z,18.60
2023-03-28T02:20:16.668Z,18.61
2023-03-28T02:20:30.698Z,18.60
2023-03-28T02:20:44.696Z,18.61
2023-03-28T02:20:58.704Z,18.60
2023-03-28T02:21:26.684Z,18.60
2023-03-28T02:21:40.674Z,18.60
2023-03-28T02:21:54.665Z,18.60
2023-03-28T02:22:08.650Z,18.60
2023-03-28T02:22:36.617Z,18.61
2023-03-28T02:22:50.620Z,18.61
2023-03-28T02:23:04.617Z,18.61
2023-03-28T02:23:18.603Z,18.60
2023-03-28T02:23:46.592Z,18.61
2023-03-28T02:24:00.595Z,18.61
2023-03-28T02:24:14.629Z,18.60
2023-03-28T02:24:28.626Z,18.59
2023-03-28T02:24:56.594Z,18.61
2023-03-28T02:25:10.595Z,18.60
2023-03-28T02:25:24.582Z,18.59
2023-03-28T02:25:38.589Z,18.59
2023-03-28T02:26:06.559Z,18.59
2023-03-28T02:26:20.540Z,18.60
2023-03-28T02:26:34.541Z,18.59
2023-03-28T02:26:48.537Z,18.59
2023-03-28T02:27:16.521Z,18.60
2023-03-28T02:27:30.516Z,18.60
2023-03-28T02:27:44.504Z,18.59
2023-03-28T02:27:58.542Z,18.59
2023-03-28T02:28:26.520Z,18.59
2023-03-28T02:28:40.503Z,18.58
2023-03-28T02:28:54.496Z,18.59
2023-03-28T02:29:08.483Z,18.59
2023-03-28T02:29:36.443Z,18.59
2023-03-28T02:29:50.436Z,18.59
2023-03-28T02:30:04.409Z,18.60
2023-03-28T02:30:18.405Z,18.59
2023-03-28T02:30:46.366Z,18.58
2023-03-28T02:31:00.351Z,18.58
2023-03-28T02:31:14.406Z,18.58
2023-03-28T02:31:28.503Z,18.58
2023-03-28T02:31:56.517Z,18.58
2023-03-28T02:32:10.521Z,18.58
2023-03-28T02:32:24.594Z,18.57
2023-03-28T02:32:38.618Z,18.59
2023-03-28T02:33:06.641Z,18.57
2023-03-28T02:33:20.629Z,18.59
2023-03-28T02:33:34.618Z,18.58
2023-03-28T02:33:48.603Z,18.59
2023-03-28T02:34:02.606Z,18.58
2023-03-28T02:34:16.607Z,18.58
2023-03-28T02:34:30.610Z,18.57
2023-03-28T02:34:44.594Z,18.58
2023-03-28T02:34:58.599Z,18.59
2023-03-28T02:35:26.589Z,18.59
2023-03-28T02:35:40.686Z,18.57
2023-03-28T02:35:54.709Z,18.58
2023-03-28T02:36:08.692Z,18.57
2023-03-28T02:36:36.675Z,18.57
2023-03-28T02:36:50.668Z,18.57
2023-03-28T02:37:04.667Z,18.57
2023-03-28T02:37:18.707Z,18.56
2023-03-28T02:37:46.674Z,18.56
2023-03-28T02:38:00.657Z,18.55
2023-03-28T02:38:14.662Z,18.55
2023-03-28T02:38:28.640Z,18.57
2023-03-28T02:38:56.594Z,18.56
2023-03-28T02:39:10.586Z,18.56
2023-03-28T02:39:24.567Z,18.56
2023-03-28T02:39:38.559Z,18.58
2023-03-28T02:40:06.510Z,18.57
2023-03-28T02:40:20.493Z,18.57
2023-03-28T02:40:34.504Z,18.57
2023-03-28T02:40:48.525Z,18.57
2023-03-28T02:41:16.512Z,18.56
2023-03-28T02:41:30.502Z,18.57
2023-03-28T02:41:44.487Z,18.56
2023-03-28T02:41:58.479Z,18.56
2023-03-28T02:42:26.448Z,18.55
2023-03-28T02:42:40.433Z,18.56
2023-03-28T02:42:54.436Z,18.55
2023-03-28T02:43:08.432Z,18.55
2023-03-28T02:43:36.374Z,18.54
2023-03-28T02:43:50.358Z,18.55
2023-03-28T02:44:04.381Z,18.54
2023-03-28T02:44:20.912Z,18.55
2023-03-28T02:44:46.762Z,18.55
2023-03-28T02:45:00.749Z,18.54
2023-03-28T02:45:14.762Z,18.54
2023-03-28T02:45:28.744Z,18.55
2023-03-28T02:45:56.831Z,18.55
2023-03-28T02:46:10.914Z,18.55
2023-03-28T02:46:24.964Z,18.55
2023-03-28T02:46:39.030Z,18.55
2023-03-28T02:46:53.089Z,18.55
2023-03-28T02:47:07.075Z,18.55
2023-03-28T02:47:21.068Z,18.54
2023-03-28T02:47:35.065Z,18.55
2023-03-28T02:47:49.129Z,18.55
2023-03-28T02:48:17.119Z,18.54
2023-03-28T02:48:31.128Z,18.54
2023-03-28T02:48:45.140Z,18.55
2023-03-28T02:48:59.129Z,18.55
2023-03-28T02:49:27.068Z,18.54
2023-03-28T02:49:54.861Z,18.54
2023-03-28T02:50:08.865Z,18.55
2023-03-28T02:50:36.856Z,18.53
2023-03-28T02:50:50.845Z,18.53
2023-03-28T02:51:04.848Z,18.53
2023-03-28T02:51:18.845Z,18.53
2023-03-28T02:51:46.810Z,18.53
2023-03-28T02:52:00.796Z,18.53
2023-03-28T02:52:14.784Z,18.53
2023-03-28T02:52:28.776Z,18.53
2023-03-28T02:52:56.764Z,18.53
2023-03-28T02:53:10.756Z,18.53
2023-03-28T02:53:24.747Z,18.53
2023-03-28T02:53:38.747Z,18.53
2023-03-28T02:54:06.736Z,18.52
2023-03-28T02:54:20.723Z,18.53
2023-03-28T02:54:34.709Z,18.54
2023-03-28T02:54:48.717Z,18.53
2023-03-28T02:55:16.678Z,18.52
2023-03-28T02:55:30.659Z,18.53
2023-03-28T02:55:44.660Z,18.52
2023-03-28T02:55:58.866Z,18.51
2023-03-28T02:56:27.005Z,18.53
2023-03-28T02:56:41.010Z,18.53
2023-03-28T02:56:55.026Z,18.52
2023-03-28T02:57:09.081Z,18.52
2023-03-28T02:57:37.143Z,18.52
2023-03-28T02:57:51.131Z,18.53
2023-03-28T02:58:05.123Z,18.53
2023-03-28T02:58:19.101Z,18.52
2023-03-28T02:58:47.059Z,18.51
2023-03-28T02:59:01.054Z,18.51
2023-03-28T02:59:15.038Z,18.51
2023-03-28T02:59:29.031Z,18.51
2023-03-28T02:59:56.985Z,18.52
2023-03-28T03:00:10.977Z,18.52
2023-03-28T03:00:24.968Z,18.52
2023-03-28T03:00:39.000Z,18.52
2023-03-28T03:01:07.002Z,18.50
2023-03-28T03:01:21.037Z,18.51
2023-03-28T03:01:35.119Z,18.50
2023-03-28T03:01:49.162Z,18.51
2023-03-28T03:02:17.129Z,18.52
2023-03-28T03:02:31.156Z,18.53
2023-03-28T03:02:45.179Z,18.51
2023-03-28T03:02:59.238Z,18.52
2023-03-28T03:03:27.264Z,18.51
2023-03-28T03:03:41.282Z,18.51
2023-03-28T03:03:57.894Z,18.51
2023-03-28T03:04:09.756Z,18.51
2023-03-28T03:04:37.772Z,18.49
2023-03-28T03:04:51.792Z,18.50
2023-03-28T03:05:05.797Z,18.50
2023-03-28T03:05:19.785Z,18.50
2023-03-28T03:05:47.791Z,18.49
2023-03-28T03:06:01.946Z,18.50
2023-03-28T03:06:16.147Z,18.50
2023-03-28T03:06:30.158Z,18.49
2023-03-28T03:06:58.169Z,18.50
2023-03-28T03:07:12.159Z,18.49
2023-03-28T03:07:26.160Z,18.50
2023-03-28T03:07:40.142Z,18.49
2023-03-28T03:08:08.114Z,18.50
2023-03-28T03:08:22.123Z,18.49
2023-03-28T03:08:36.128Z,18.50
2023-03-28T03:08:50.134Z,18.51
2023-03-28T03:09:18.086Z,18.50
2023-03-28T03:09:32.072Z,18.50
2023-03-28T03:09:46.063Z,18.51
2023-03-28T03:10:00.046Z,18.51
2023-03-28T03:10:27.999Z,18.50
2023-03-28T03:10:41.985Z,18.49
2023-03-28T03:10:56.017Z,18.49
2023-03-28T03:11:10.062Z,18.48
2023-03-28T03:11:38.024Z,18.49
2023-03-28T03:11:52.033Z,18.49
2023-03-28T03:12:06.032Z,18.49
2023-03-28T03:12:20.044Z,18.48
2023-03-28T03:12:48.003Z,18.48
2023-03-28T03:13:02.012Z,18.47
2023-03-28T03:13:16.016Z,18.49
2023-03-28T03:13:30.023Z,18.48
2023-03-28T03:13:57.975Z,18.49
2023-03-28T03:14:11.969Z,18.48
2023-03-28T03:14:25.965Z,18.49
2023-03-28T03:14:39.952Z,18.49
2023-03-28T03:15:07.899Z,18.49
2023-03-28T03:15:21.892Z,18.48
2023-03-28T03:15:35.965Z,18.50
2023-03-28T03:15:50.012Z,18.50
2023-03-28T03:16:18.039Z,18.50
2023-03-28T03:16:32.114Z,18.48
2023-03-28T03:16:46.127Z,18.47
2023-03-28T03:17:00.158Z,18.48
2023-03-28T03:17:14.163Z,18.48
2023-03-28T03:17:28.161Z,18.48
2023-03-28T03:17:42.228Z,18.48
2023-03-28T03:17:56.325Z,18.49
2023-03-28T03:18:10.375Z,18.49
2023-03-28T03:18:38.366Z,18.48
2023-03-28T03:18:52.375Z,18.47
2023-03-28T03:19:06.358Z,18.48
2023-03-28T03:19:20.345Z,18.48
2023-03-28T03:19:48.275Z,18.48
2023-03-28T03:20:02.279Z,18.48
2023-03-28T03:20:16.278Z,18.48
2023-03-28T03:20:30.266Z,18.47
2023-03-28T03:20:58.244Z,18.48
2023-03-28T03:21:12.239Z,18.47
2023-03-28T03:21:26.223Z,18.48
2023-03-28T03:21:40.207Z,18.47
2023-03-28T03:22:08.184Z,18.48
2023-03-28T03:22:22.176Z,18.47
2023-03-28T03:22:36.172Z,18.47
2023-03-28T03:22:50.151Z,18.47
2023-03-28T03:23:18.116Z,18.47
2023-03-28T03:23:32.091Z,18.47
2023-03-28T03:23:46.074Z,18.47
2023-03-28T03:24:00.072Z,18.48
2023-03-28T03:24:28.039Z,18.47
2023-03-28T03:24:42.037Z,18.47
2023-03-28T03:24:56.020Z,18.46
2023-03-28T03:25:11.447Z,18.47
2023-03-28T03:25:37.808Z,18.47
2023-03-28T03:25:51.863Z,18.47
2023-03-28T03:26:05.885Z,18.45
2023-03-28T03:26:19.889Z,18.46
2023-03-28T03:26:47.874Z,18.46
2023-03-28T03:27:01.876Z,18.45
2023-03-28T03:27:15.862Z,18.45
2023-03-28T03:27:29.858Z,18.45
2023-03-28T03:27:57.886Z,18.46
2023-03-28T03:28:11.932Z,18.46
2023-03-28T03:28:25.939Z,18.45
2023-03-28T03:28:39.924Z,18.45
2023-03-28T03:29:07.875Z,18.46
2023-03-28T03:29:21.868Z,18.46
2023-03-28T03:29:38.497Z,18.46
2023-03-28T03:29:50.507Z,18.45
2023-03-28T03:30:04.510Z,18.45
2023-03-28T03:30:18.505Z,18.46
2023-03-28T03:30:32.499Z,18.45
2023-03-28T03:30:46.483Z,18.45
2023-03-28T03:31:00.488Z,18.46
2023-03-28T03:31:28.471Z,18.45
2023-03-28T03:31:42.474Z,18.45
2023-03-28T03:31:56.482Z,18.45
2023-03-28T03:32:10.466Z,18.45
2023-03-28T03:32:38.531Z,18.45
2023-03-28T03:32:52.659Z,18.44
2023-03-28T03:33:06.839Z,18.45
2023-03-28T03:33:20.881Z,18.45
2023-03-28T03:33:48.868Z,18.45
2023-03-28T03:34:02.861Z,18.45
2023-03-28T03:34:16.862Z,18.45
2023-03-28T03:34:30.868Z,18.44
2023-03-28T03:34:58.849Z,18.45
2023-03-28T03:35:12.848Z,18.45
2023-03-28T03:35:26.876Z,18.45
2023-03-28T03:35:40.915Z,18.46
2023-03-28T03:36:08.904Z,18.43
2023-03-28T03:36:22.934Z,18.44
2023-03-28T03:36:36.942Z,18.45
2023-03-28T03:36:50.925Z,18.45
2023-03-28T03:37:18.903Z,18.43
2023-03-28T03:37:32.926Z,18.45
2023-03-28T03:37:46.917Z,18.44
2023-03-28T03:38:00.921Z,18.42
2023-03-28T03:38:29.002Z,18.44
2023-03-28T03:38:42.984Z,18.44
2023-03-28T03:38:56.981Z,18.43
2023-03-28T03:39:10.965Z,18.42
2023-03-28T03:39:38.952Z,18.43
2023-03-28T03:39:52.966Z,18.43
2023-03-28T03:40:06.949Z,18.42
2023-03-28T03:40:20.966Z,18.43
2023-03-28T03:40:48.955Z,18.42
2023-03-28T03:41:02.948Z,18.43
2023-03-28T03:41:16.945Z,18.42
2023-03-28T03:41:30.936Z,18.42
2023-03-28T03:41:58.939Z,18.43
2023-03-28T03:42:12.925Z,18.43
2023-03-28T03:42:26.928Z,18.42